createdAt,value
2022-10-09T00:00:18.277Z,153499.63
2022-10-09T00:02:48.981Z,153460.72
2022-10-09T00:05:21.256Z,153446.53
2022-10-09T00:07:52.739Z,153476.34
2022-10-09T00:10:22.452Z,153454.28
2022-10-09T00:12:53.496Z,153429.63
2022-10-09T00:15:29.523Z,153411.53
2022-10-09T00:18:00.608Z,153399.84
2022-10-09T00:20:32.718Z,153425.75
2022-10-09T00:23:04.155Z,153414.09
2022-10-09T00:25:34.475Z,153373.91
2022-10-09T00:28:05.998Z,153346.69
2022-10-09T00:30:42.190Z,153333.69
2022-10-09T00:33:13.778Z,153331.09
2022-10-09T00:35:44.596Z,153322.00
2022-10-09T00:38:15.667Z,153301.28
2022-10-09T00:40:47.607Z,153266.31
2022-10-09T00:43:18.559Z,153258.56
2022-10-09T00:45:53.585Z,153248.19
2022-10-09T00:48:25.807Z,153233.94
2022-10-09T00:50:59.500Z,153213.19
2022-10-09T00:53:31.865Z,153280.56
2022-10-09T00:56:02.953Z,153314.25
2022-10-09T00:58:35.928Z,153332.41
2022-10-09T01:01:09.968Z,153357.09
2022-10-09T01:03:40.697Z,153358.38
2022-10-09T01:06:16.256Z,153354.47
2022-10-09T01:08:51.046Z,153341.44
2022-10-09T01:11:29.587Z,153355.75
2022-10-09T01:14:01.870Z,153331.09
2022-10-09T01:16:37.331Z,153331.09
2022-10-09T01:19:16.699Z,153336.28
2022-10-09T01:21:49.610Z,153349.28
2022-10-09T01:24:25.723Z,153370.03
2022-10-09T01:27:14.914Z,153373.91
2022-10-09T01:29:47.730Z,153359.66
2022-10-09T01:32:21.309Z,153355.75
2022-10-09T01:34:52.581Z,153385.56
2022-10-09T01:37:24.620Z,153420.56
2022-10-09T01:39:55.112Z,153437.44
2022-10-09T01:42:29.345Z,153436.09
2022-10-09T01:44:59.710Z,153442.63
2022-10-09T01:47:29.658Z,153427.06
2022-10-09T01:50:02.093Z,153401.13
2022-10-09T01:52:46.981Z,153384.28
2022-10-09T01:55:30.448Z,153362.28
2022-10-09T01:58:11.983Z,153401.13
2022-10-09T02:00:49.155Z,153392.09
2022-10-09T02:03:21.490Z,153393.38
2022-10-09T02:05:53.353Z,153395.94
2022-10-09T02:08:26.494Z,153406.28
2022-10-09T02:11:02.765Z,153388.19
2022-10-09T02:13:38.166Z,153384.28
2022-10-09T02:16:14.794Z,153405.00
2022-10-09T02:18:46.121Z,153381.66
2022-10-09T02:21:18.685Z,153354.47
2022-10-09T02:23:49.089Z,153354.47
2022-10-09T02:26:25.301Z,153349.28
2022-10-09T02:28:58.467Z,153350.56
2022-10-09T02:31:30.750Z,153340.16
2022-10-09T02:34:02.461Z,153309.06
2022-10-09T02:36:33.489Z,153305.19
2022-10-09T02:39:04.185Z,153287.03
2022-10-09T02:41:34.526Z,153290.94
2022-10-09T02:44:08.797Z,153280.56
2022-10-09T02:46:40.099Z,153271.47
2022-10-09T02:49:10.025Z,153272.81
2022-10-09T02:51:40.482Z,153297.38
2022-10-09T02:54:10.502Z,153314.25
2022-10-09T02:56:41.579Z,153324.63
2022-10-09T02:59:14.126Z,153322.00
2022-10-09T03:01:47.599Z,153332.41
2022-10-09T03:04:17.639Z,153301.28
2022-10-09T03:06:48.381Z,153311.66
2022-10-09T03:09:18.518Z,153306.47
2022-10-09T03:11:49.369Z,153323.34
2022-10-09T03:14:22.091Z,153312.97
2022-10-09T03:16:52.762Z,153284.47
2022-10-09T03:19:22.523Z,153261.13
2022-10-09T03:21:53.472Z,153268.91
2022-10-09T03:24:23.511Z,153266.31
2022-10-09T03:26:54.338Z,153241.69
2022-10-09T03:29:27.104Z,153274.09
2022-10-09T03:31:58.016Z,153271.47
2022-10-09T03:34:28.732Z,153258.56
2022-10-09T03:36:58.536Z,153242.97
2022-10-09T03:39:29.563Z,153241.69
2022-10-09T03:42:00.586Z,153224.88
2022-10-09T03:44:33.122Z,153222.25
2022-10-09T03:47:04.090Z,153205.44
2022-10-09T03:49:42.269Z,153258.56
2022-10-09T03:52:15.109Z,153246.88
2022-10-09T03:54:45.638Z,153250.75
2022-10-09T03:57:16.700Z,153252.03
2022-10-09T03:59:49.204Z,153257.22
2022-10-09T04:02:20.417Z,153261.13
2022-10-09T04:04:50.507Z,153272.81
2022-10-09T04:07:20.505Z,153274.09
2022-10-09T04:09:51.007Z,153241.69
2022-10-09T04:12:22.183Z,153249.47
2022-10-09T04:14:55.101Z,153261.13
2022-10-09T04:17:26.035Z,153288.34
2022-10-09T04:19:56.563Z,153289.63
2022-10-09T04:22:27.859Z,153296.09
2022-10-09T04:24:58.584Z,153294.81
2022-10-09T04:27:29.277Z,153301.28
2022-10-09T04:30:02.137Z,153283.19
2022-10-09T04:32:33.109Z,153298.72
2022-10-09T04:35:03.531Z,153328.53
2022-10-09T04:37:38.207Z,153325.91
2022-10-09T04:40:08.959Z,153320.72
2022-10-09T04:42:40.213Z,153319.44
2022-10-09T04:45:13.889Z,153318.16
2022-10-09T04:47:44.996Z,153322.00
2022-10-09T04:50:15.723Z,153303.91
2022-10-09T04:53:00.848Z,153331.09
2022-10-09T04:55:31.577Z,153315.53
2022-10-09T04:58:03.101Z,153319.44
2022-10-09T05:00:36.627Z,153320.72
2022-10-09T05:03:07.653Z,153359.66
2022-10-09T05:05:37.724Z,153354.47
2022-10-09T05:08:07.644Z,153367.47
2022-10-09T05:10:37.511Z,153384.28
2022-10-09T05:13:11.114Z,153406.28
2022-10-09T05:15:44.382Z,153425.75
2022-10-09T05:18:15.465Z,153418.00
2022-10-09T05:20:46.054Z,153436.09
2022-10-09T05:23:17.371Z,153463.34
2022-10-09T05:25:47.873Z,153460.72
2022-10-09T05:28:18.652Z,153473.72
2022-10-09T05:30:51.833Z,153481.50
2022-10-09T05:33:22.999Z,153489.28
2022-10-09T05:35:54.561Z,153498.34
2022-10-09T05:38:25.861Z,153532.06
2022-10-09T05:40:57.391Z,153535.97
2022-10-09T05:43:29.286Z,153543.72
2022-10-09T05:46:07.339Z,153568.34
2022-10-09T05:48:40.767Z,153593.00
2022-10-09T05:51:11.583Z,153615.06
2022-10-09T05:53:41.995Z,153622.81
2022-10-09T05:56:16.650Z,153629.28
2022-10-09T05:58:47.554Z,153631.91
2022-10-09T06:01:20.249Z,153647.47
2022-10-09T06:03:54.047Z,153668.22
2022-10-09T06:06:25.511Z,153681.22
2022-10-09T06:08:58.099Z,153698.03
2022-10-09T06:11:28.880Z,153725.34
2022-10-09T06:13:59.050Z,153742.22
2022-10-09T06:16:33.062Z,153759.09
2022-10-09T06:19:02.877Z,153788.94
2022-10-09T06:21:32.667Z,153813.59
2022-10-09T06:24:03.786Z,153830.44
2022-10-09T06:26:36.087Z,153848.63
2022-10-09T06:29:06.944Z,153891.44
2022-10-09T06:31:40.142Z,153907.00
2022-10-09T06:34:09.865Z,153930.38
2022-10-09T06:36:43.502Z,153920.00
2022-10-09T06:39:14.543Z,153936.91
2022-10-09T06:41:44.382Z,153970.59
2022-10-09T06:44:26.707Z,154005.66
2022-10-09T06:46:59.002Z,154043.38
2022-10-09T06:49:28.934Z,154068.03
2022-10-09T06:51:58.609Z,154108.28
2022-10-09T06:54:28.476Z,154166.75
2022-10-09T06:56:58.711Z,154169.31
2022-10-09T06:59:29.557Z,154113.47
2022-10-09T07:02:04.375Z,154152.44
2022-10-09T07:04:34.605Z,154138.16
2022-10-09T07:07:04.320Z,154103.09
2022-10-09T07:09:34.872Z,154064.13
2022-10-09T07:12:04.594Z,154036.91
2022-10-09T07:14:35.389Z,154035.56
2022-10-09T07:17:07.903Z,154012.19
2022-10-09T07:19:37.914Z,154023.88
2022-10-09T07:22:11.500Z,154030.38
2022-10-09T07:24:41.620Z,154049.84
2022-10-09T07:27:11.457Z,154062.84
2022-10-09T07:29:42.618Z,154021.31
2022-10-09T07:32:16.178Z,154010.84
2022-10-09T07:34:46.955Z,153978.41
2022-10-09T07:37:16.710Z,153997.88
2022-10-09T07:39:46.542Z,153993.97
2022-10-09T07:42:16.995Z,153978.41
2022-10-09T07:44:47.759Z,153988.78
2022-10-09T07:47:20.359Z,153993.97
2022-10-09T07:49:50.215Z,154044.66
2022-10-09T07:52:19.905Z,154035.56
2022-10-09T07:54:49.927Z,154083.63
2022-10-09T07:57:19.719Z,154095.28
2022-10-09T07:59:49.835Z,154122.59
2022-10-09T08:02:22.624Z,154161.53
2022-10-09T08:04:52.893Z,154223.88
2022-10-09T08:07:23.883Z,154268.03
2022-10-09T08:09:53.570Z,154258.94
2022-10-09T08:12:24.312Z,154309.66
2022-10-09T08:14:54.753Z,154382.44
2022-10-09T08:17:28.189Z,154427.91
2022-10-09T08:19:58.678Z,154478.63
2022-10-09T08:22:33.937Z,154507.19
2022-10-09T08:25:04.665Z,154548.81
2022-10-09T08:27:34.615Z,154616.44
2022-10-09T08:30:04.607Z,154634.66
2022-10-09T08:32:37.949Z,154656.81
2022-10-09T08:35:09.104Z,154673.69
2022-10-09T08:37:40.075Z,154704.88
2022-10-09T08:40:11.410Z,154698.41
2022-10-09T08:42:46.469Z,154710.09
2022-10-09T08:45:18.698Z,154732.22
2022-10-09T08:47:56.760Z,154727.03
2022-10-09T08:50:28.528Z,154779.03
2022-10-09T08:53:03.735Z,154776.47
2022-10-09T08:55:39.453Z,154772.53
2022-10-09T08:58:09.678Z,154779.03
2022-10-09T09:00:43.567Z,154825.91
2022-10-09T09:03:38.877Z,154844.06
2022-10-09T09:06:12.334Z,154922.22
2022-10-09T09:08:46.753Z,154923.50
2022-10-09T09:11:21.842Z,154941.72
2022-10-09T09:14:00.374Z,154946.94
2022-10-09T09:16:36.330Z,155004.19
2022-10-09T09:19:21.944Z,155035.44
2022-10-09T09:21:54.118Z,155032.81
2022-10-09T09:24:36.716Z,155064.06
2022-10-09T09:27:07.593Z,155069.25
2022-10-09T09:29:42.547Z,155120.13
2022-10-09T09:32:18.637Z,155134.44
2022-10-09T09:35:00.030Z,155078.38
2022-10-09T09:37:30.816Z,154997.69
2022-10-09T09:42:57.111Z,155091.41
2022-10-09T09:45:30.734Z,155083.56
2022-10-09T09:48:03.016Z,155181.28
2022-10-09T09:50:50.420Z,155105.78
2022-10-09T09:53:29.135Z,155057.56
2022-10-09T09:56:00.083Z,155073.16
2022-10-09T09:58:37.940Z,155035.44
2022-10-09T10:01:22.702Z,155087.50
2022-10-09T10:03:53.305Z,155079.72
2022-10-09T10:06:33.746Z,155113.56
2022-10-09T10:09:05.129Z,155130.53
2022-10-09T10:11:36.191Z,155178.66
2022-10-09T10:14:09.859Z,155164.38
2022-10-09T10:16:41.039Z,155193.00
2022-10-09T10:19:22.083Z,155161.75
2022-10-09T10:21:58.329Z,155187.78
2022-10-09T10:24:30.816Z,155186.50
2022-10-09T10:27:03.079Z,155215.16
2022-10-09T10:29:36.731Z,155239.91
2022-10-09T10:32:12.654Z,155249.03
2022-10-09T10:34:44.695Z,155243.81
2022-10-09T10:37:26.323Z,155258.09
2022-10-09T10:40:00.247Z,155226.88
2022-10-09T10:42:39.897Z,155133.09
2022-10-09T10:45:15.759Z,155142.22
2022-10-09T10:47:50.155Z,155286.75
2022-10-09T10:50:22.534Z,155355.88
2022-10-09T10:53:03.044Z,155305.00
2022-10-09T10:55:38.596Z,155327.19
2022-10-09T10:58:14.872Z,155305.00
2022-10-09T11:00:50.170Z,155346.72
2022-10-09T11:03:34.595Z,155371.47
2022-10-09T11:06:09.895Z,155379.31
2022-10-09T11:08:49.015Z,155434.03
2022-10-09T11:11:23.509Z,155421.00
2022-10-09T11:14:05.807Z,155299.81
2022-10-09T11:16:50.342Z,155410.56
2022-10-09T11:19:31.456Z,155436.63
2022-10-09T11:22:05.871Z,155397.53
2022-10-09T11:24:45.992Z,155410.56
2022-10-09T11:27:19.308Z,155350.66
2022-10-09T11:29:56.287Z,155368.91
2022-10-09T11:32:30.667Z,155380.63
2022-10-09T11:35:05.031Z,155449.66
2022-10-09T11:37:39.379Z,155398.88
2022-10-09T11:40:19.677Z,155406.66
2022-10-09T11:42:50.986Z,155431.41
2022-10-09T11:45:27.481Z,155505.69
2022-10-09T11:48:02.315Z,155444.47
2022-10-09T11:50:51.450Z,155447.03
2022-10-09T11:53:23.661Z,155465.31
2022-10-09T11:56:07.214Z,155417.06
2022-10-09T11:58:37.843Z,155396.25
2022-10-09T12:01:16.516Z,155414.50
2022-10-09T12:03:46.748Z,155381.91
2022-10-09T12:06:21.023Z,155332.41
2022-10-09T12:08:58.030Z,155323.28
2022-10-09T12:11:32.438Z,155337.59
2022-10-09T12:14:03.814Z,155372.78
2022-10-09T12:16:39.724Z,155448.38
2022-10-09T12:19:16.873Z,155440.53
2022-10-09T12:21:53.036Z,155474.44
2022-10-09T12:24:25.611Z,155503.09
2022-10-09T12:27:03.330Z,155473.13
2022-10-09T12:29:36.658Z,155419.69
2022-10-09T12:32:09.367Z,155436.63
2022-10-09T12:34:45.129Z,155419.69
2022-10-09T12:37:18.051Z,155388.44
2022-10-09T12:39:49.803Z,155348.03
2022-10-09T12:42:24.543Z,155320.63
2022-10-09T12:44:57.974Z,155319.34
2022-10-09T12:47:30.067Z,155314.16
2022-10-09T12:50:02.063Z,155331.09
2022-10-09T12:52:34.173Z,155349.38
2022-10-09T12:55:05.421Z,155357.16
2022-10-09T12:57:38.544Z,155376.69
2022-10-09T13:00:09.347Z,155358.50
2022-10-09T13:02:39.759Z,155367.56
2022-10-09T13:05:11.344Z,155298.53
2022-10-09T13:07:47.820Z,155329.81
2022-10-09T13:10:20.627Z,155376.69
2022-10-09T13:12:56.119Z,155405.38
2022-10-09T13:15:40.261Z,155357.16
2022-10-09T13:18:24.208Z,155350.66
2022-10-09T13:21:01.462Z,155275.06
2022-10-09T13:23:33.355Z,155246.41
2022-10-09T13:26:07.004Z,155258.09
2022-10-09T13:28:40.405Z,155265.94
2022-10-09T13:31:11.526Z,155230.78
2022-10-09T13:33:42.591Z,155251.59
2022-10-09T13:36:13.346Z,155255.53
2022-10-09T13:38:43.757Z,155258.09
2022-10-09T13:41:14.554Z,155254.22
2022-10-09T13:43:49.946Z,155268.56
2022-10-09T13:46:22.034Z,155224.28
2022-10-09T13:48:54.760Z,155241.19
2022-10-09T13:51:24.716Z,155209.94
2022-10-09T13:53:54.834Z,155204.75
2022-10-09T13:56:24.756Z,155190.41
2022-10-09T13:58:57.354Z,155180.00
2022-10-09T14:01:28.117Z,155168.25
2022-10-09T14:03:58.793Z,155173.47
2022-10-09T14:06:28.856Z,155169.59
2022-10-09T14:08:58.737Z,155176.09
2022-10-09T14:11:29.097Z,155152.63
2022-10-09T14:14:03.149Z,155161.75
2022-10-09T14:16:34.481Z,155139.66
2022-10-09T14:19:07.176Z,155121.41
2022-10-09T14:21:40.011Z,155113.56
2022-10-09T14:24:10.204Z,155092.69
2022-10-09T14:26:41.400Z,155075.78
2022-10-09T14:29:14.546Z,155091.41
2022-10-09T14:31:45.641Z,155069.25
2022-10-09T14:34:16.761Z,155070.59
2022-10-09T14:36:46.847Z,155083.56
2022-10-09T14:39:16.950Z,155070.59
2022-10-09T14:41:46.743Z,155056.25
2022-10-09T14:44:19.399Z,155023.69
2022-10-09T14:46:50.049Z,155019.84
2022-10-09T14:49:19.761Z,155021.13
2022-10-09T14:51:50.115Z,154987.28
2022-10-09T14:54:20.768Z,154943.03
2022-10-09T14:56:50.764Z,154909.19
2022-10-09T14:59:24.773Z,154910.50
2022-10-09T15:01:56.738Z,154932.63
2022-10-09T15:04:27.732Z,154891.00
2022-10-09T15:06:57.869Z,154859.72
2022-10-09T15:09:29.175Z,154857.16
2022-10-09T15:11:59.751Z,154829.75
2022-10-09T15:14:33.225Z,154807.66
2022-10-09T15:17:03.910Z,154785.53
2022-10-09T15:19:35.046Z,154772.53
2022-10-09T15:22:05.084Z,154747.81
2022-10-09T15:24:36.099Z,154738.72
2022-10-09T15:27:07.342Z,154730.88
2022-10-09T15:29:41.465Z,154698.41
2022-10-09T15:32:11.775Z,154651.56
2022-10-09T15:34:43.041Z,154603.47
2022-10-09T15:37:14.095Z,154602.19
2022-10-09T15:39:45.139Z,154569.63
2022-10-09T15:42:16.428Z,154535.81
2022-10-09T15:44:49.843Z,154502.00
2022-10-09T15:47:39.367Z,154476.00
2022-10-09T15:50:11.842Z,154421.41
2022-10-09T15:52:41.916Z,154381.13
2022-10-09T15:55:13.177Z,154366.84
2022-10-09T15:57:43.767Z,154330.47
2022-10-09T16:00:17.744Z,154312.22
2022-10-09T16:02:48.031Z,154281.03
2022-10-09T16:05:21.887Z,154239.44
2022-10-09T16:07:51.806Z,154208.28
2022-10-09T16:10:22.930Z,154186.22
2022-10-09T16:12:52.819Z,154158.94
2022-10-09T16:15:27.003Z,154145.97
2022-10-09T16:17:56.793Z,154127.78
2022-10-09T16:20:26.469Z,154138.16
2022-10-09T16:22:56.138Z,154131.69
2022-10-09T16:25:25.871Z,154173.22
2022-10-09T16:27:55.580Z,154226.50
2022-10-09T16:30:28.140Z,154236.88
2022-10-09T16:32:58.186Z,154244.69
2022-10-09T16:35:28.739Z,154252.47
2022-10-09T16:37:58.470Z,154268.03
2022-10-09T16:40:49.964Z,154247.25
2022-10-09T16:43:20.285Z,154231.69
2022-10-09T16:46:00.661Z,154222.56
2022-10-09T16:48:33.095Z,154201.81
2022-10-09T16:51:02.776Z,154164.13
2022-10-09T16:53:33.798Z,154117.38
2022-10-09T16:56:09.403Z,154122.59
2022-10-09T16:58:39.225Z,154123.88
2022-10-09T17:01:10.541Z,154101.81
2022-10-09T17:03:43.310Z,154109.56
2022-10-09T17:06:14.273Z,154082.34
2022-10-09T17:08:44.579Z,154064.13
2022-10-09T17:11:16.432Z,154057.66
2022-10-09T17:13:46.856Z,154071.94
2022-10-09T17:16:19.430Z,154079.72
2022-10-09T17:18:54.089Z,154049.84
2022-10-09T17:21:27.925Z,154049.84
2022-10-09T17:24:01.739Z,154042.09
2022-10-09T17:26:31.857Z,154010.84
2022-10-09T17:29:01.915Z,153992.69
2022-10-09T17:31:31.943Z,153979.69
2022-10-09T17:34:05.113Z,153982.31
2022-10-09T17:36:36.137Z,153971.94
2022-10-09T17:39:06.736Z,153973.22
2022-10-09T17:41:36.509Z,153957.66
2022-10-09T17:44:06.247Z,153980.97
2022-10-09T17:46:36.090Z,153983.59
2022-10-09T17:49:08.627Z,153986.19
2022-10-09T17:51:39.859Z,153964.13
2022-10-09T17:54:13.151Z,153936.91
2022-10-09T17:56:44.201Z,153920.00
2022-10-09T17:59:15.746Z,153918.72
2022-10-09T18:01:45.895Z,153894.03
2022-10-09T18:04:20.215Z,153873.28
2022-10-09T18:06:52.999Z,153870.66
2022-10-09T18:09:22.831Z,153881.03
2022-10-09T18:11:56.446Z,153878.47
2022-10-09T18:14:26.851Z,153868.09
2022-10-09T18:16:57.835Z,153839.53
2022-10-09T18:19:33.552Z,153844.72
2022-10-09T18:22:03.850Z,153842.09
2022-10-09T18:24:35.006Z,153844.72
2022-10-09T18:27:04.856Z,153800.59
2022-10-09T18:29:35.724Z,153816.16
2022-10-09T18:32:06.009Z,153798.03
2022-10-09T18:34:46.256Z,153752.59
2022-10-09T18:37:19.909Z,153730.53
2022-10-09T18:39:50.130Z,153711.09
2022-10-09T18:42:21.341Z,153725.34
2022-10-09T18:44:52.199Z,153685.09
2022-10-09T18:47:27.648Z,153646.19
2022-10-09T18:50:10.347Z,153634.53
2022-10-09T18:52:42.559Z,153626.72
2022-10-09T18:55:15.358Z,153618.94
2022-10-09T18:57:46.161Z,153621.53
2022-10-09T19:00:19.332Z,153621.53
2022-10-09T19:02:49.844Z,153608.56
2022-10-09T19:05:25.034Z,153607.28
2022-10-09T19:07:59.505Z,153620.25
2022-10-09T19:10:29.830Z,153620.25
2022-10-09T19:13:00.915Z,153602.09
2022-10-09T19:15:31.038Z,153600.81
2022-10-09T19:18:01.932Z,153583.91
2022-10-09T19:20:35.390Z,153577.44
2022-10-09T19:23:05.836Z,153565.78
2022-10-09T19:25:36.901Z,153558.00
2022-10-09T19:28:06.989Z,153564.47
2022-10-09T19:30:38.008Z,153580.06
2022-10-09T19:33:07.905Z,153552.81
2022-10-09T19:35:46.732Z,153529.47
2022-10-09T19:38:17.432Z,153532.06
2022-10-09T19:40:51.356Z,153524.28
2022-10-09T19:43:23.642Z,153503.53
2022-10-09T19:46:03.404Z,153493.16
2022-10-09T19:48:34.034Z,153487.97
2022-10-09T19:51:07.892Z,153484.09
2022-10-09T19:53:38.276Z,153462.06
2022-10-09T19:56:12.467Z,153485.38
2022-10-09T19:58:43.736Z,153476.34
2022-10-09T20:01:14.527Z,153478.91
2022-10-09T20:03:45.805Z,153456.88
2022-10-09T20:06:18.600Z,153467.25
2022-10-09T20:08:50.754Z,153440.00
2022-10-09T20:11:21.168Z,153430.91
2022-10-09T20:13:55.791Z,153427.06
2022-10-09T20:16:29.932Z,153408.91
2022-10-09T20:18:59.913Z,153406.28
2022-10-09T20:21:34.549Z,153408.91
2022-10-09T20:24:06.330Z,153393.38
2022-10-09T20:26:42.162Z,153393.38
2022-10-09T20:29:13.391Z,153381.66
2022-10-09T20:31:44.337Z,153389.47
2022-10-09T20:34:14.881Z,153385.56
2022-10-09T20:39:24.926Z,153357.09
2022-10-09T20:41:55.863Z,153350.56
2022-10-09T20:44:26.242Z,153325.91
2022-10-09T20:46:56.991Z,153298.72
2022-10-09T20:49:27.134Z,153283.19
2022-10-09T20:51:59.667Z,153301.28
2022-10-09T20:54:31.141Z,153280.56
2022-10-09T20:57:00.868Z,153263.75
2022-10-09T20:59:31.358Z,153258.56
2022-10-09T21:02:01.857Z,153232.63
2022-10-09T21:04:32.294Z,153223.59
2022-10-09T21:07:05.461Z,153241.69
2022-10-09T21:09:36.367Z,153197.63
2022-10-09T21:12:07.242Z,153184.72
2022-10-09T21:14:39.193Z,153184.72
2022-10-09T21:17:09.846Z,153195.06
2022-10-09T21:19:40.870Z,153178.19
2022-10-09T21:22:13.487Z,153176.91
2022-10-09T21:24:44.341Z,153167.84
2022-10-09T21:27:14.889Z,153154.91
2022-10-09T21:29:45.037Z,153151.03
2022-10-09T21:32:15.282Z,153156.19
2022-10-09T21:34:45.946Z,153132.88
2022-10-09T21:37:22.135Z,153101.81
2022-10-09T21:39:53.524Z,153094.00
2022-10-09T21:42:24.218Z,153077.19
2022-10-09T21:44:55.041Z,153051.31
2022-10-09T21:47:28.240Z,153056.50
2022-10-09T21:49:58.912Z,153049.97
2022-10-09T21:52:31.530Z,153056.50
2022-10-09T21:55:02.430Z,153068.13
2022-10-09T21:57:33.254Z,153051.31
2022-10-09T22:00:04.037Z,153034.44
2022-10-09T22:02:34.940Z,153029.28
2022-10-09T22:05:04.928Z,153026.72
2022-10-09T22:07:37.462Z,153040.97
2022-10-09T22:10:09.486Z,153012.47
2022-10-09T22:12:39.992Z,153002.09
2022-10-09T22:15:11.610Z,153006.00
2022-10-09T22:17:41.817Z,153024.09
2022-10-09T22:20:13.193Z,153029.28
2022-10-09T22:22:45.531Z,152996.94
2022-10-09T22:25:16.828Z,152987.88
2022-10-09T22:27:47.165Z,152980.06
2022-10-09T22:30:18.065Z,152993.03
2022-10-09T22:32:48.286Z,152964.53
2022-10-09T22:35:19.530Z,152977.50
2022-10-09T22:37:52.646Z,152987.88
2022-10-09T22:40:26.812Z,152972.34
2022-10-09T22:42:57.437Z,152949.03
2022-10-09T22:45:28.604Z,152945.13
2022-10-09T22:47:59.515Z,152950.31
2022-10-09T22:50:30.135Z,152939.91
2022-10-09T22:53:02.513Z,152930.84
2022-10-09T22:55:33.358Z,152907.56
2022-10-09T22:58:03.960Z,152916.63
2022-10-09T23:00:35.503Z,152892.03
2022-10-09T23:03:05.578Z,152879.09
2022-10-09T23:05:36.759Z,152872.63
2022-10-09T23:08:09.587Z,152857.06
2022-10-09T23:10:40.789Z,152850.59
2022-10-09T23:13:13.183Z,152867.44
2022-10-09T23:15:44.592Z,152841.53
2022-10-09T23:18:14.956Z,152837.69
2022-10-09T23:20:45.708Z,152822.13
2022-10-09T23:23:18.498Z,152813.09
2022-10-09T23:25:49.376Z,152804.03
2022-10-09T23:28:20.017Z,152815.66
2022-10-09T23:30:52.378Z,152798.88
2022-10-09T23:33:22.934Z,152787.19
2022-10-09T23:35:52.931Z,152788.50
2022-10-09T23:38:25.568Z,152788.50
2022-10-09T23:40:59.731Z,152766.50
2022-10-09T23:43:31.288Z,152756.16
2022-10-09T23:46:03.086Z,152756.16
2022-10-09T23:48:32.962Z,152769.09
2022-10-09T23:51:05.323Z,152791.06
2022-10-09T23:53:39.068Z,152783.34
2022-10-09T23:56:16.980Z,152797.53
2022-10-09T23:58:47.299Z,152778.16
